Time;durP1;ratioP1;P1;durP2;ratioP2;P2;SDS_P1;SDS_P2;PMS_P1;PMS_P2;Temp;Humidity;BMP_temperature;BMP_pressure;BME280_temperature;BME280_humidity;BME280_pressure;Samples;Min_cycle;Max_cycle;Signal;HPM_P1;HPM_P2
2022/08/01 00:02:14;;;;;;;18.73;13.33;;;18.70;99.90;;;;;;5112492;28;20215;-63
2022/08/01 00:04:41;;;;;;;18.90;12.63;;;18.60;99.90;;;;;;5112541;28;20256;-63
2022/08/01 00:07:07;;;;;;;19.37;13.30;;;18.70;99.90;;;;;;5112036;28;20269;-64
2022/08/01 00:09:35;;;;;;;18.23;12.57;;;18.60;99.90;;;;;;5112158;28;20259;-64
2022/08/01 00:12:02;;;;;;;15.50;11.70;;;18.60;99.90;;;;;;5112627;28;20204;-64
2022/08/01 00:14:28;;;;;;;17.73;12.17;;;18.60;99.90;;;;;;5112389;28;20208;-64
2022/08/01 00:16:55;;;;;;;20.53;13.30;;;18.70;99.90;;;;;;5111913;28;20200;-64
2022/08/01 00:19:22;;;;;;;17.13;12.50;;;18.60;99.90;;;;;;5112181;28;20212;-63
2022/08/01 00:21:48;;;;;;;18.53;13.17;;;18.60;99.90;;;;;;5112088;28;20268;-63
2022/08/01 00:24:15;;;;;;;19.03;13.33;;;18.60;99.90;;;;;;5111949;28;20261;-64
2022/08/01 00:26:43;;;;;;;18.73;14.33;;;18.60;99.90;;;;;;5111755;28;20223;-64
2022/08/01 00:29:09;;;;;;;21.87;14.27;;;18.60;99.90;;;;;;5112377;28;20204;-64
2022/08/01 00:31:36;;;;;;;20.90;14.50;;;18.50;99.90;;;;;;5112103;28;20710;-64
2022/08/01 00:34:03;;;;;;;25.20;15.43;;;18.50;99.90;;;;;;5112360;28;20670;-63
2022/08/01 00:36:30;;;;;;;23.57;15.00;;;18.50;99.90;;;;;;5112183;28;20207;-64
2022/08/01 00:38:58;;;;;;;23.23;15.80;;;18.50;99.90;;;;;;5113032;28;20211;-64
2022/08/01 00:41:24;;;;;;;27.60;16.00;;;18.60;99.90;;;;;;5111893;28;20705;-64
2022/08/01 00:43:53;;;;;;;28.97;16.77;;;18.60;99.90;;;;;;5112022;28;20207;-63
2022/08/01 00:46:20;;;;;;;26.20;16.97;;;18.50;99.90;;;;;;5111692;28;20234;-63
2022/08/01 00:48:46;;;;;;;29.00;17.07;;;18.60;99.90;;;;;;5112033;28;20269;-64
2022/08/01 00:51:13;;;;;;;33.20;18.43;;;18.60;99.90;;;;;;5111729;28;20277;-64
2022/08/01 00:53:40;;;;;;;31.77;17.93;;;18.60;99.90;;;;;;5112220;28;20253;-63
2022/08/01 00:56:08;;;;;;;28.27;18.57;;;18.60;99.90;;;;;;5111467;28;20203;-63
2022/08/01 00:58:35;;;;;;;30.47;19.10;;;18.60;99.90;;;;;;5111802;28;20253;-63
2022/08/01 01:01:03;;;;;;;31.37;18.93;;;18.60;99.90;;;;;;5112003;28;20224;-64
2022/08/01 01:03:30;;;;;;;31.17;19.83;;;18.60;99.90;;;;;;5111786;28;20284;-64
2022/08/01 01:06:05;;;;;;;32.07;19.20;;;18.60;99.90;;;;;;5111442;28;20211;-64
2022/08/01 01:08:40;;;;;;;33.70;18.73;;;18.60;99.90;;;;;;5111811;28;20247;-63
2022/08/01 01:11:12;;;;;;;31.30;19.73;;;18.60;99.90;;;;;;5111876;28;20287;-63
2022/08/01 01:13:43;;;;;;;32.10;18.70;;;18.60;99.90;;;;;;5111681;28;20828;-64
2022/08/01 01:16:14;;;;;;;32.20;18.73;;;18.60;99.90;;;;;;5111474;28;20272;-64
2022/08/01 01:18:45;;;;;;;36.43;20.10;;;18.60;99.90;;;;;;5111738;28;20212;-64
2022/08/01 01:21:43;;;;;;;34.80;20.73;;;18.60;99.90;;;;;;5111987;28;20224;-63
2022/08/01 01:24:22;;;;;;;38.00;20.97;;;18.60;99.90;;;;;;5095762;28;20203;-63
2022/08/01 01:26:58;;;;;;;40.47;20.80;;;18.50;99.90;;;;;;5111465;28;20212;-64
2022/08/01 01:29:31;;;;;;;34.17;20.03;;;18.50;99.90;;;;;;5112721;28;20585;-63
2022/08/01 01:32:04;;;;;;;39.33;20.77;;;18.60;99.90;;;;;;5115459;28;20208;-64
2022/08/01 01:34:35;;;;;;;35.73;20.47;;;18.60;99.90;;;;;;5115206;28;20253;-64
2022/08/01 01:37:03;;;;;;;35.93;20.07;;;18.60;99.90;;;;;;5114732;28;20195;-64
2022/08/01 01:39:31;;;;;;;35.80;20.87;;;18.60;99.90;;;;;;5115146;28;20264;-63
2022/08/01 01:41:59;;;;;;;33.57;20.70;;;18.60;99.90;;;;;;5115458;28;20208;-64
2022/08/01 01:44:28;;;;;;;34.67;20.73;;;18.60;99.90;;;;;;5115191;27;20253;-64
2022/08/01 01:46:57;;;;;;;34.27;19.37;;;18.60;99.90;;;;;;5114750;28;20269;-63
2022/08/01 01:49:26;;;;;;;35.73;21.17;;;18.60;99.90;;;;;;5114758;27;20612;-64
2022/08/01 01:51:56;;;;;;;31.87;20.17;;;18.60;99.90;;;;;;5114734;27;20227;-64
2022/08/01 01:54:25;;;;;;;31.50;19.53;;;18.60;99.90;;;;;;5114843;28;20231;-64
2022/08/01 01:56:52;;;;;;;30.43;19.70;;;18.60;99.90;;;;;;5114612;27;20195;-64
2022/08/01 01:59:21;;;;;;;37.07;21.13;;;18.60;99.90;;;;;;5115072;28;20203;-63
2022/08/01 02:01:52;;;;;;;35.03;20.27;;;18.60;99.90;;;;;;5115176;28;20651;-64
2022/08/01 02:04:20;;;;;;;33.73;20.50;;;18.60;99.90;;;;;;5114535;28;20208;-64
2022/08/01 02:06:48;;;;;;;39.03;19.17;;;18.60;99.90;;;;;;5114309;28;20240;-64
2022/08/01 02:09:18;;;;;;;36.10;19.77;;;18.60;99.90;;;;;;5114549;28;20203;-64
2022/08/01 02:11:46;;;;;;;33.30;19.90;;;18.60;99.90;;;;;;5114433;28;20713;-64
2022/08/01 02:14:14;;;;;;;32.23;19.43;;;18.60;99.90;;;;;;5114374;28;20666;-64
2022/08/01 02:16:44;;;;;;;38.50;19.93;;;18.50;99.90;;;;;;5113830;28;20678;-64
2022/08/01 02:19:12;;;;;;;33.90;19.93;;;18.50;99.90;;;;;;5114396;28;20260;-64
2022/08/01 02:21:45;;;;;;;34.13;20.83;;;18.50;99.90;;;;;;5114182;28;20223;-64
2022/08/01 02:24:17;;;;;;;36.60;20.00;;;18.50;99.90;;;;;;5114430;28;20249;-65
2022/08/01 02:26:50;;;;;;;36.87;20.33;;;18.50;99.90;;;;;;5113740;28;20718;-64
2022/08/01 02:29:23;;;;;;;36.03;20.43;;;18.50;99.90;;;;;;5114406;28;20187;-64
2022/08/01 02:31:54;;;;;;;49.90;22.00;;;18.50;99.90;;;;;;5114304;28;20227;-64
2022/08/01 02:34:25;;;;;;;35.93;20.37;;;18.50;99.90;;;;;;5114297;28;20256;-64
2022/08/01 02:36:53;;;;;;;38.93;21.17;;;18.50;99.90;;;;;;5113567;28;20665;-64
2022/08/01 02:39:22;;;;;;;39.13;22.03;;;18.50;99.90;;;;;;5114012;28;20670;-64
2022/08/01 02:41:55;;;;;;;40.07;21.97;;;18.40;99.90;;;;;;5113959;28;20273;-64
2022/08/01 02:44:25;;;;;;;41.50;21.73;;;18.50;99.90;;;;;;5114128;28;20256;-64
2022/08/01 02:46:55;;;;;;;39.50;21.90;;;18.50;99.90;;;;;;5113343;28;20204;-64
2022/08/01 02:49:26;;;;;;;40.37;22.30;;;18.40;99.90;;;;;;5113697;28;20290;-64
2022/08/01 02:51:55;;;;;;;42.60;22.97;;;18.50;99.90;;;;;;5113740;28;20228;-64
2022/08/01 02:54:23;;;;;;;42.63;21.90;;;18.50;99.90;;;;;;5113579;28;20204;-64
2022/08/01 02:56:52;;;;;;;42.83;22.33;;;18.50;99.90;;;;;;5113460;28;20199;-64
2022/08/01 02:59:24;;;;;;;39.93;21.43;;;18.50;99.90;;;;;;5113621;28;20203;-64
2022/08/01 03:01:53;;;;;;;42.00;21.80;;;18.50;99.90;;;;;;5113455;28;20257;-64
2022/08/01 03:04:23;;;;;;;40.93;21.97;;;18.40;99.90;;;;;;5113269;28;20256;-64
2022/08/01 03:06:50;;;;;;;38.60;20.83;;;18.40;99.90;;;;;;5113034;28;20208;-64
2022/08/01 03:09:18;;;;;;;38.60;21.63;;;18.40;99.90;;;;;;5113326;28;20249;-64
2022/08/01 03:11:47;;;;;;;43.20;22.53;;;18.40;99.90;;;;;;5113311;28;20296;-65
2022/08/01 03:14:15;;;;;;;38.77;22.30;;;18.40;99.90;;;;;;5113290;28;20200;-64
2022/08/01 03:16:43;;;;;;;46.73;22.57;;;18.40;99.90;;;;;;5112944;28;20199;-64
2022/08/01 03:19:12;;;;;;;36.37;20.90;;;18.40;99.90;;;;;;5112993;28;20211;-65
2022/08/01 03:21:43;;;;;;;44.13;22.33;;;18.40;99.90;;;;;;5113776;28;20227;-65
2022/08/01 03:24:11;;;;;;;39.93;21.37;;;18.40;99.90;;;;;;5113517;28;20199;-65
2022/08/01 03:26:40;;;;;;;45.10;22.60;;;18.40;99.90;;;;;;5112880;28;20207;-64
2022/08/01 03:29:09;;;;;;;51.90;23.87;;;18.40;99.90;;;;;;5113034;28;20724;-65
2022/08/01 03:31:38;;;;;;;47.97;23.73;;;18.40;99.90;;;;;;5112767;28;20735;-64
2022/08/01 03:34:06;;;;;;;52.90;23.27;;;18.40;99.90;;;;;;5112993;28;20252;-64
2022/08/01 03:36:34;;;;;;;48.20;24.53;;;18.40;99.90;;;;;;5112609;28;20840;-65
2022/08/01 03:39:06;;;;;;;50.70;25.47;;;18.40;99.90;;;;;;5112844;28;20203;-64
2022/08/01 03:41:37;;;;;;;49.93;24.73;;;18.40;99.90;;;;;;5112862;28;20670;-64
2022/08/01 03:44:08;;;;;;;45.73;24.60;;;18.40;99.90;;;;;;5112768;28;20203;-64
2022/08/01 03:46:41;;;;;;;50.03;25.30;;;18.40;99.90;;;;;;5112575;28;20261;-64
2022/08/01 03:49:13;;;;;;;44.87;24.00;;;18.40;99.90;;;;;;5112978;28;20227;-64
2022/08/01 03:51:41;;;;;;;48.13;24.03;;;18.40;99.90;;;;;;5112217;28;20596;-64
2022/08/01 03:54:11;;;;;;;44.97;23.10;;;18.40;99.90;;;;;;5112850;28;20605;-64
2022/08/01 03:56:39;;;;;;;49.30;24.13;;;18.40;99.90;;;;;;5112596;28;20605;-64
2022/08/01 03:59:07;;;;;;;47.47;25.83;;;18.40;99.90;;;;;;5112696;28;20199;-64
2022/08/01 04:01:35;;;;;;;55.93;23.70;;;18.30;99.90;;;;;;5112569;28;20770;-64
2022/08/01 04:04:04;;;;;;;43.80;23.50;;;18.30;99.90;;;;;;5112725;28;20207;-64
2022/08/01 04:06:31;;;;;;;40.60;21.87;;;18.40;99.90;;;;;;5112046;28;20211;-64
2022/08/01 04:08:58;;;;;;;40.00;21.53;;;18.40;99.90;;;;;;5112344;28;20276;-64
2022/08/01 04:11:27;;;;;;;39.67;21.40;;;18.40;99.90;;;;;;5112647;28;20232;-64
2022/08/01 04:13:55;;;;;;;44.13;21.70;;;18.30;99.90;;;;;;5112609;28;20212;-64
2022/08/01 04:16:22;;;;;;;47.87;22.10;;;18.30;99.90;;;;;;5112242;28;20207;-64
2022/08/01 04:18:49;;;;;;;48.37;21.40;;;18.20;99.90;;;;;;5112382;27;20211;-64
2022/08/01 04:21:21;;;;;;;42.63;19.87;;;18.20;99.90;;;;;;5112257;28;20648;-64
2022/08/01 04:23:48;;;;;;;35.17;19.90;;;18.30;99.90;;;;;;5112281;28;20256;-64
2022/08/01 04:26:16;;;;;;;36.37;18.17;;;18.20;99.90;;;;;;5112292;28;20203;-64
2022/08/01 04:28:47;;;;;;;31.73;18.00;;;18.30;99.90;;;;;;5112297;28;20661;-64
2022/08/01 04:31:16;;;;;;;36.77;18.07;;;18.10;99.90;;;;;;5112427;28;20227;-64
2022/08/01 04:33:46;;;;;;;35.30;16.97;;;18.10;99.90;;;;;;5112316;28;20256;-65
2022/08/01 04:36:15;;;;;;;37.13;18.60;;;18.20;99.90;;;;;;5111767;28;20261;-65
2022/08/01 04:38:45;;;;;;;35.03;18.50;;;18.20;99.90;;;;;;5112024;28;20355;-66
2022/08/01 04:41:14;;;;;;;34.23;16.80;;;18.20;99.90;;;;;;5112330;28;20227;-64
2022/08/01 04:43:42;;;;;;;36.33;18.00;;;18.30;99.90;;;;;;5112191;28;20230;-64
2022/08/01 04:46:11;;;;;;;36.17;18.23;;;18.40;99.90;;;;;;5109840;28;20260;-66
2022/08/01 04:48:39;;;;;;;32.37;16.60;;;18.40;99.90;;;;;;5110974;28;20274;-66
2022/08/01 04:51:14;;;;;;;31.47;17.70;;;18.40;99.90;;;;;;5111888;28;20253;-66
2022/08/01 04:53:41;;;;;;;28.07;15.70;;;18.50;99.90;;;;;;5111867;28;20207;-66
2022/08/01 04:56:08;;;;;;;29.67;16.77;;;18.60;99.90;;;;;;5111622;28;20211;-66
2022/08/01 04:58:35;;;;;;;31.77;16.27;;;18.60;99.90;;;;;;5112042;28;20199;-65
2022/08/01 05:01:01;;;;;;;31.00;17.17;;;18.70;99.90;;;;;;5111595;28;20629;-66
2022/08/01 05:03:29;;;;;;;26.83;16.17;;;18.70;99.90;;;;;;5111826;28;20237;-66
2022/08/01 05:05:56;;;;;;;30.77;18.80;;;18.70;99.90;;;;;;5115062;28;20713;-66
2022/08/01 05:08:23;;;;;;;28.40;16.00;;;18.70;99.90;;;;;;5115957;28;20597;-65
2022/08/01 05:10:49;;;;;;;25.13;14.57;;;18.70;99.90;;;;;;5115485;28;20718;-66
2022/08/01 05:13:16;;;;;;;27.23;14.50;;;18.70;99.90;;;;;;5115788;27;20681;-65
2022/08/01 05:15:42;;;;;;;27.40;14.40;;;18.70;99.90;;;;;;5114970;28;20290;-63
2022/08/01 05:18:09;;;;;;;23.73;14.73;;;18.80;99.90;;;;;;5114954;28;20244;-64
2022/08/01 05:20:37;;;;;;;23.37;14.53;;;18.70;99.90;;;;;;5115500;28;20220;-65
2022/08/01 05:23:04;;;;;;;24.47;13.67;;;18.70;99.90;;;;;;5115185;28;20559;-65
2022/08/01 05:25:31;;;;;;;23.20;14.10;;;18.70;99.90;;;;;;5115173;28;20685;-65
2022/08/01 05:27:57;;;;;;;21.40;13.00;;;18.70;99.90;;;;;;5114543;28;20219;-66
2022/08/01 05:30:24;;;;;;;28.20;14.80;;;18.70;99.90;;;;;;5115192;28;20223;-65
2022/08/01 05:32:51;;;;;;;31.27;15.17;;;18.70;99.90;;;;;;5115300;28;20276;-65
2022/08/01 05:35:17;;;;;;;21.33;13.77;;;18.80;99.90;;;;;;5115464;28;20207;-65
2022/08/01 05:37:45;;;;;;;27.10;14.27;;;18.90;99.90;;;;;;5114380;28;20680;-66
2022/08/01 05:40:12;;;;;;;22.47;14.10;;;18.90;99.90;;;;;;5115505;28;20622;-66
2022/08/01 05:42:39;;;;;;;26.30;14.37;;;18.80;99.90;;;;;;5115052;28;20229;-65
2022/08/01 05:45:06;;;;;;;25.57;13.80;;;18.90;99.90;;;;;;5114783;27;20261;-65
2022/08/01 05:47:33;;;;;;;24.83;13.80;;;18.90;99.90;;;;;;5114587;28;20280;-65
2022/08/01 05:50:00;;;;;;;25.30;13.27;;;18.90;99.90;;;;;;5114318;28;20619;-66
2022/08/01 05:52:26;;;;;;;24.83;14.60;;;18.90;99.90;;;;;;5114842;28;20252;-66
2022/08/01 05:54:54;;;;;;;25.73;14.83;;;18.90;99.90;;;;;;5114765;28;20210;-65
2022/08/01 05:57:21;;;;;;;27.57;15.33;;;18.80;99.90;;;;;;5114038;28;20211;-66
2022/08/01 05:59:48;;;;;;;27.30;16.27;;;18.80;99.90;;;;;;5114418;28;20261;-66
2022/08/01 06:02:14;;;;;;;25.47;14.70;;;18.80;99.90;;;;;;5114933;28;20249;-67
2022/08/01 06:04:41;;;;;;;24.77;14.83;;;18.80;99.90;;;;;;5114622;28;20207;-68
2022/08/01 06:07:08;;;;;;;25.90;15.50;;;18.90;99.90;;;;;;5113852;27;20224;-65
2022/08/01 06:09:34;;;;;;;28.00;15.40;;;19.00;99.90;;;;;;5114238;28;20220;-66
2022/08/01 06:12:03;;;;;;;27.60;16.03;;;19.00;99.90;;;;;;5114159;27;20264;-65
2022/08/01 06:14:29;;;;;;;24.50;15.07;;;19.10;99.90;;;;;;5114187;28;20666;-63
2022/08/01 06:16:56;;;;;;;23.23;13.70;;;19.10;99.90;;;;;;5113765;28;20211;-63
2022/08/01 06:19:23;;;;;;;26.23;15.30;;;19.10;99.90;;;;;;5114124;28;20204;-64
2022/08/01 06:21:50;;;;;;;22.53;14.20;;;19.00;99.90;;;;;;5113891;28;20227;-65
2022/08/01 06:24:16;;;;;;;23.47;14.50;;;19.10;99.90;;;;;;5114237;28;20210;-66
2022/08/01 06:26:43;;;;;;;23.63;15.00;;;19.00;99.90;;;;;;5113608;28;20248;-67
2022/08/01 06:29:11;;;;;;;26.03;15.47;;;19.00;99.90;;;;;;5113825;28;20280;-64
2022/08/01 06:31:37;;;;;;;29.90;16.17;;;19.10;99.90;;;;;;5114300;27;20220;-64
2022/08/01 06:34:04;;;;;;;22.60;14.47;;;19.10;99.90;;;;;;5113949;28;20208;-64
2022/08/01 06:36:31;;;;;;;25.63;15.43;;;19.10;99.90;;;;;;5113644;28;20200;-63
2022/08/01 06:38:57;;;;;;;21.27;14.30;;;19.20;99.90;;;;;;5113523;28;20563;-63
2022/08/01 06:41:24;;;;;;;22.23;14.90;;;19.20;99.90;;;;;;5113820;28;20227;-63
2022/08/01 06:43:51;;;;;;;21.70;14.10;;;19.30;99.90;;;;;;5113742;28;20355;-64
2022/08/01 06:46:19;;;;;;;23.63;14.87;;;19.40;99.90;;;;;;5113937;28;20233;-65
2022/08/01 06:48:45;;;;;;;24.07;14.07;;;19.50;99.90;;;;;;5113638;28;20219;-65
2022/08/01 06:51:15;;;;;;;21.13;14.27;;;19.60;99.90;;;;;;5113728;28;20272;-64
2022/08/01 06:53:41;;;;;;;19.37;11.97;;;19.80;99.90;;;;;;5113412;28;20649;-64
2022/08/01 06:56:09;;;;;;;19.27;11.43;;;19.90;99.90;;;;;;5113156;28;20203;-65
2022/08/01 06:58:36;;;;;;;18.43;11.70;;;20.00;99.90;;;;;;5113690;28;20227;-64
2022/08/01 07:01:05;;;;;;;13.20;9.60;;;20.10;99.90;;;;;;5114207;28;20624;-66
2022/08/01 07:03:33;;;;;;;14.70;10.37;;;20.10;99.90;;;;;;5115065;28;20212;-65
2022/08/01 07:06:00;;;;;;;13.37;9.17;;;20.20;99.90;;;;;;5112712;28;20204;-68
2022/08/01 07:08:26;;;;;;;10.90;7.83;;;20.20;99.90;;;;;;5112951;27;20227;-65
2022/08/01 07:10:53;;;;;;;15.20;9.17;;;20.20;99.90;;;;;;5113149;28;20223;-65
2022/08/01 07:13:24;;;;;;;11.80;8.10;;;20.20;99.90;;;;;;5113435;28;20204;-65
2022/08/01 07:15:51;;;;;;;11.50;7.67;;;20.30;99.90;;;;;;5113357;28;20200;-65
2022/08/01 07:18:18;;;;;;;13.23;8.13;;;20.20;99.90;;;;;;5112820;28;20208;-63
2022/08/01 07:20:46;;;;;;;11.20;7.10;;;20.30;99.90;;;;;;5112943;28;20280;-65
2022/08/01 07:23:13;;;;;;;10.47;6.70;;;20.30;99.90;;;;;;5112864;28;20207;-64
2022/08/01 07:25:40;;;;;;;9.57;5.87;;;20.20;99.90;;;;;;5113100;28;20204;-63
2022/08/01 07:28:07;;;;;;;9.20;6.57;;;20.40;99.90;;;;;;5111580;28;20670;-63
2022/08/01 07:30:33;;;;;;;6.70;5.30;;;20.20;99.90;;;;;;5112608;28;20698;-63
2022/08/01 07:33:00;;;;;;;6.50;4.57;;;20.20;99.90;;;;;;5112582;28;20212;-63
2022/08/01 07:35:27;;;;;;;6.63;4.13;;;20.30;99.90;;;;;;5112540;28;20207;-63
2022/08/01 07:37:55;;;;;;;5.60;3.60;;;20.40;99.90;;;;;;5112258;27;20674;-63
2022/08/01 07:40:22;;;;;;;5.10;3.67;;;20.60;99.90;;;;;;5112471;28;20714;-64
2022/08/01 07:42:48;;;;;;;6.97;4.10;;;20.70;99.90;;;;;;5112744;28;20207;-67
2022/08/01 07:45:15;;;;;;;10.83;5.97;;;20.80;99.90;;;;;;5112363;28;20636;-64
2022/08/01 07:47:42;;;;;;;5.87;4.20;;;20.90;99.90;;;;;;5112116;28;20211;-64
2022/08/01 07:50:10;;;;;;;5.60;3.93;;;20.90;91.40;;;;;;5112257;28;20227;-63
2022/08/01 07:52:36;;;;;;;7.17;5.47;;;21.00;94.00;;;;;;5112553;28;20200;-63
2022/08/01 07:55:05;;;;;;;6.57;4.77;;;20.80;85.20;;;;;;5112113;28;20623;-62
2022/08/01 07:57:32;;;;;;;8.07;4.47;;;20.90;88.40;;;;;;5111922;28;20212;-64
2022/08/01 07:59:59;;;;;;;6.70;4.80;;;21.20;99.90;;;;;;5111938;28;20265;-66
2022/08/01 08:02:25;;;;;;;4.80;3.90;;;21.30;93.10;;;;;;5112031;28;20207;-65
2022/08/01 08:04:52;;;;;;;3.90;3.50;;;21.40;83.40;;;;;;5112447;28;20200;-64
2022/08/01 08:07:19;;;;;;;5.77;3.83;;;21.10;41.60;;;;;;5112072;28;20207;-62
2022/08/01 08:09:45;;;;;;;7.70;5.23;;;21.30;56.80;;;;;;5112092;28;20359;-65
2022/08/01 08:12:13;;;;;;;8.73;5.30;;;21.20;47.00;;;;;;5111627;28;20208;-66
2022/08/01 08:14:43;;;;;;;10.27;6.33;;;21.30;44.80;;;;;;5097922;28;20561;-65
2022/08/01 08:17:09;;;;;;;9.43;5.50;;;21.50;61.70;;;;;;5109875;28;20582;-70
2022/08/01 08:19:38;;;;;;;7.90;5.63;;;21.50;32.70;;;;;;5111372;28;20584;-69
2022/08/01 08:22:05;;;;;;;6.37;4.70;;;21.60;28.70;;;;;;5111554;28;20210;-69
2022/08/01 08:24:32;;;;;;;6.47;4.40;;;21.70;20.20;;;;;;5111894;28;20211;-68
2022/08/01 08:26:59;;;;;;;4.87;3.57;;;21.90;1.00;;;;;;5111202;28;20211;-63
2022/08/01 08:29:29;;;;;;;4.03;2.57;;;22.00;1.00;;;;;;5111559;28;20215;-64
2022/08/01 08:31:57;;;;;;;5.20;2.67;;;22.10;1.00;;;;;;5112073;28;20210;-67
2022/08/01 08:34:24;;;;;;;3.80;2.30;;;22.20;1.60;;;;;;5111671;28;20203;-66
2022/08/01 08:36:51;;;;;;;3.70;2.90;;;22.40;1.00;;;;;;5110887;28;20204;-67
2022/08/01 08:39:18;;;;;;;4.60;2.80;;;22.40;1.00;;;;;;5114359;28;20249;-64
2022/08/01 08:41:45;;;;;;;3.63;2.33;;;22.50;32.40;;;;;;5115889;28;20244;-65
2022/08/01 08:44:12;;;;;;;2.80;2.27;;;22.30;1.00;;;;;;5115526;28;20795;-66
2022/08/01 08:46:43;;;;;;;5.00;2.30;;;22.00;1.00;;;;;;5114865;28;20200;-66
2022/08/01 08:49:12;;;;;;;4.93;2.40;;;21.90;1.00;;;;;;5115548;28;20567;-63
2022/08/01 08:51:40;;;;;;;1.87;1.67;;;21.90;1.00;;;;;;5115512;28;20573;-62
2022/08/01 08:54:08;;;;;;;2.00;1.60;;;22.00;1.00;;;;;;5116070;28;20310;-62
2022/08/01 08:56:37;;;;;;;4.47;2.30;;;22.10;1.00;;;;;;5114965;28;20583;-62
2022/08/01 08:59:04;;;;;;;3.90;2.73;;;22.10;1.00;;;;;;5115894;28;20264;-62
2022/08/01 09:01:34;;;;;;;3.80;2.60;;;22.20;1.00;;;;;;5115139;28;20219;-62
2022/08/01 09:04:03;;;;;;;6.97;3.00;;;22.30;1.00;;;;;;5116077;28;20269;-63
2022/08/01 09:06:30;;;;;;;3.83;2.87;;;22.20;1.00;;;;;;5115538;28;20235;-62
2022/08/01 09:08:56;;;;;;;5.27;3.63;;;22.00;1.00;;;;;;5115168;28;20257;-62
2022/08/01 09:11:23;;;;;;;4.17;3.30;;;22.00;1.00;;;;;;5115549;28;20598;-62
2022/08/01 09:14:03;;;;;;;4.23;2.63;;;22.00;1.00;;;;;;5115097;28;20204;-62
2022/08/01 09:16:31;;;;;;;3.17;2.87;;;22.30;1.00;;;;;;5115102;28;20314;-62
2022/08/01 09:19:10;;;;;;;2.60;2.40;;;22.40;1.00;;;;;;5114877;28;20290;-62
2022/08/01 09:21:36;;;;;;;4.00;2.70;;;22.40;1.00;;;;;;5115042;28;20505;-62
2022/08/01 09:24:05;;;;;;;3.30;2.70;;;22.20;1.00;;;;;;5115136;28;20622;-62
2022/08/01 09:26:33;;;;;;;3.87;3.17;;;22.00;1.00;;;;;;5114334;28;20238;-62
2022/08/01 09:29:02;;;;;;;3.17;2.63;;;22.00;1.00;;;;;;5114935;28;20207;-62
2022/08/01 09:31:29;;;;;;;2.60;2.33;;;22.00;1.00;;;;;;5114765;28;20250;-62
2022/08/01 09:33:57;;;;;;;3.13;2.60;;;22.00;1.00;;;;;;5114803;28;20211;-62
2022/08/01 09:36:43;;;;;;;4.70;3.37;;;22.00;1.00;;;;;;5114273;28;20212;-62
2022/08/01 09:39:14;;;;;;;4.70;3.47;;;22.10;1.00;;;;;;5114937;28;20211;-62
2022/08/01 09:41:41;;;;;;;3.43;3.13;;;22.40;1.00;;;;;;5114484;28;20310;-62
2022/08/01 09:44:08;;;;;;;4.53;3.00;;;22.50;1.00;;;;;;5115234;28;20249;-62
2022/08/01 09:46:36;;;;;;;4.07;2.70;;;22.70;1.00;;;;;;5114426;28;20257;-62
2022/08/01 09:49:05;;;;;;;4.87;2.87;;;22.70;1.00;;;;;;5114583;28;20223;-63
2022/08/01 09:51:35;;;;;;;3.40;2.87;;;22.70;99.90;;;;;;5113800;28;20223;-63
2022/08/01 09:54:04;;;;;;;5.10;3.20;;;22.70;99.90;;;;;;5114415;27;20621;-62
2022/08/01 09:56:38;;;;;;;3.60;2.37;;;22.80;1.00;;;;;;5114369;28;20278;-62
2022/08/01 09:59:05;;;;;;;2.87;2.07;;;22.80;1.00;;;;;;5113872;28;20659;-62
2022/08/01 10:01:44;;;;;;;3.37;2.30;;;22.90;99.90;;;;;;5114656;28;20224;-62
2022/08/01 10:04:12;;;;;;;1.73;1.53;;;22.70;1.00;;;;;;5114176;28;20203;-63
2022/08/01 10:06:42;;;;;;;2.37;1.93;;;22.70;99.90;;;;;;5113787;28;20620;-62
2022/08/01 10:09:09;;;;;;;3.73;1.83;;;22.90;99.90;;;;;;5113869;28;20221;-62
2022/08/01 10:11:38;;;;;;;1.77;1.30;;;23.10;99.90;;;;;;5113698;28;20281;-62
2022/08/01 10:14:05;;;;;;;2.90;1.57;;;23.20;1.00;;;;;;5114008;28;20726;-62
2022/08/01 10:16:35;;;;;;;2.50;1.37;;;23.50;99.90;;;;;;5113078;28;20669;-62
2022/08/01 10:19:03;;;;;;;1.47;1.20;;;23.60;99.90;;;;;;5113790;28;20280;-62
2022/08/01 10:21:33;;;;;;;1.60;1.30;;;23.60;1.00;;;;;;5113710;28;20273;-62
2022/08/01 10:24:03;;;;;;;1.77;1.40;;;23.30;1.00;;;;;;5113946;28;20257;-62
2022/08/01 10:26:33;;;;;;;2.13;1.37;;;23.40;1.00;;;;;;5113497;28;20208;-62
2022/08/01 10:29:00;;;;;;;2.30;1.50;;;23.40;1.00;;;;;;5113641;28;20211;-62
2022/08/01 10:31:30;;;;;;;1.87;1.57;;;23.10;1.00;;;;;;5113877;28;20231;-62
2022/08/01 10:33:59;;;;;;;1.50;1.30;;;22.80;1.00;;;;;;5113132;28;20252;-62
2022/08/01 10:36:26;;;;;;;3.33;1.40;;;22.70;1.00;;;;;;5113341;28;20207;-62
2022/08/01 10:38:53;;;;;;;2.43;1.50;;;22.40;1.00;;;;;;5113744;28;20208;-62
2022/08/01 10:41:22;;;;;;;1.47;1.37;;;22.30;1.00;;;;;;5118090;28;20219;-68
2022/08/01 10:43:49;;;;;;;2.53;1.40;;;22.50;75.30;;;;;;5115754;28;20203;-64
2022/08/01 10:46:16;;;;;;;2.13;1.50;;;22.40;1.00;;;;;;5112999;28;20585;-66
2022/08/01 10:48:50;;;;;;;2.10;1.80;;;22.40;11.70;;;;;;5112880;27;20617;-66
2022/08/01 10:51:20;;;;;;;1.97;1.60;;;22.50;1.00;;;;;;5112528;28;20289;-66
2022/08/01 10:53:52;;;;;;;2.30;1.77;;;22.60;11.90;;;;;;5113032;28;20204;-63
2022/08/01 10:56:21;;;;;;;2.70;1.60;;;22.90;99.90;;;;;;5112431;28;20200;-65
2022/08/01 10:58:49;;;;;;;2.40;1.90;;;23.30;53.30;;;;;;5112626;28;20234;-63
2022/08/01 11:01:22;;;;;;;5.23;1.20;;;23.50;1.00;;;;;;5111877;28;20326;-63
2022/08/01 11:04:02;;;;;;;2.67;1.40;;;23.50;1.00;;;;;;5112426;28;20247;-62
2022/08/01 11:06:41;;;;;;;2.20;1.67;;;23.10;1.00;;;;;;5112087;27;20203;-62
2022/08/01 11:09:28;;;;;;;1.80;1.40;;;22.70;1.00;;;;;;5112991;28;20210;-63
2022/08/01 11:12:04;;;;;;;2.27;1.03;;;22.50;34.70;;;;;;5112299;28;20230;-63
2022/08/01 11:14:31;;;;;;;1.47;0.97;;;22.50;1.00;;;;;;5112765;28;20203;-62
2022/08/01 11:17:33;;;;;;;1.50;1.00;;;22.40;1.00;;;;;;5111912;28;20208;-63
2022/08/01 11:20:09;;;;;;;1.00;0.80;;;22.50;1.00;;;;;;5112586;28;20227;-62
2022/08/01 11:23:25;;;;;;;1.10;0.80;;;22.50;1.00;;;;;;5112450;28;20280;-63
2022/08/01 11:26:09;;;;;;;1.10;0.90;;;22.10;1.00;;;;;;5112545;28;20234;-63
2022/08/01 11:28:38;;;;;;;0.77;0.73;;;22.50;1.00;;;;;;5111984;28;20231;-64
2022/08/01 11:31:27;;;;;;;1.30;0.90;;;22.70;1.00;;;;;;5111746;28;20234;-65
2022/08/01 11:33:53;;;;;;;1.00;0.80;;;23.00;99.90;;;;;;5112392;27;20265;-64
2022/08/01 11:36:21;;;;;;;0.93;0.60;;;23.30;1.00;;;;;;5111549;28;20233;-65
2022/08/01 11:38:49;;;;;;;0.80;0.70;;;23.40;1.00;;;;;;5112033;28;20276;-64
2022/08/01 11:41:19;;;;;;;0.90;0.70;;;23.40;1.00;;;;;;5111555;28;20644;-63
2022/08/01 11:43:59;;;;;;;2.23;0.80;;;22.40;1.00;;;;;;5112285;28;20638;-64
2022/08/01 11:46:48;;;;;;;3.20;0.70;;;22.10;1.00;;;;;;5111342;28;20199;-66
2022/08/01 11:49:33;;;;;;;1.33;0.67;;;22.10;1.00;;;;;;5112061;28;20642;-64
2022/08/01 11:52:02;;;;;;;1.73;0.80;;;22.10;1.00;;;;;;5111927;28;20226;-64
2022/08/01 11:54:30;;;;;;;1.40;0.70;;;22.30;1.00;;;;;;5112074;28;20203;-65
2022/08/01 11:56:58;;;;;;;1.30;0.80;;;22.50;1.00;;;;;;5111062;28;20207;-64
2022/08/01 11:59:27;;;;;;;0.77;0.77;;;22.70;1.00;;;;;;5111469;28;20207;-63
2022/08/01 12:01:53;;;;;;;2.10;0.80;;;22.80;1.00;;;;;;5112010;28;20219;-63
2022/08/01 12:04:21;;;;;;;2.30;0.90;;;23.20;1.00;;;;;;5111887;28;20229;-63
2022/08/01 12:06:48;;;;;;;1.17;1.07;;;23.40;1.00;;;;;;5111440;28;20207;-63
2022/08/01 12:09:19;;;;;;;1.00;0.90;;;23.20;99.90;;;;;;5111063;28;20732;-63
2022/08/01 12:11:46;;;;;;;1.10;1.00;;;23.20;1.00;;;;;;5111920;28;20227;-63
2022/08/01 12:14:19;;;;;;;1.67;1.57;;;23.20;99.90;;;;;;5111387;28;20207;-63
2022/08/01 12:16:56;;;;;;;1.60;1.50;;;22.80;99.90;;;;;;5110723;28;20203;-64
2022/08/01 12:19:24;;;;;;;1.40;1.30;;;23.10;1.00;;;;;;5111287;28;20275;-65
2022/08/01 12:22:12;;;;;;;1.50;1.40;;;23.50;1.00;;;;;;5111436;28;20288;-66
2022/08/01 12:24:40;;;;;;;1.33;1.23;;;23.70;99.90;;;;;;5111506;28;20206;-65
2022/08/01 12:27:08;;;;;;;1.07;1.00;;;23.90;99.90;;;;;;5110233;28;20298;-64
2022/08/01 12:29:37;;;;;;;0.90;0.90;;;23.40;99.90;;;;;;5111306;28;20591;-65
2022/08/01 12:32:21;;;;;;;2.47;0.93;;;23.60;99.90;;;;;;5111317;28;20258;-67
2022/08/01 12:34:48;;;;;;;1.00;0.90;;;23.30;99.90;;;;;;5111491;28;20290;-66
2022/08/01 12:37:15;;;;;;;1.13;0.90;;;23.30;99.90;;;;;;5110468;28;20207;-65
2022/08/01 12:39:42;;;;;;;1.63;1.03;;;23.20;99.90;;;;;;5111067;28;20211;-68
2022/08/01 12:42:10;;;;;;;1.67;1.20;;;23.10;99.90;;;;;;5111566;28;20583;-66
2022/08/01 12:44:38;;;;;;;1.30;1.20;;;23.20;99.90;;;;;;5111223;28;20215;-66
2022/08/01 12:47:07;;;;;;;9.63;7.23;;;23.20;99.90;;;;;;5110601;28;20264;-66
2022/08/01 12:49:37;;;;;;;1.60;1.47;;;23.40;99.90;;;;;;5110771;28;20280;-65